KOZR/OZR METAR and TAF weather

Enter ICAO airport designator
Station Type Date Time Source
KOZR METAR 2023/12/09 01:55 UTC NOAA

KOZR 090155Z AUTO 07003KT 10SM BKN065 14/11 A3011 RMK AO2 SLP199 T01390111 $


Station Type Date Time Source
KOZR Decoded METAR 2023/12/09 01:55 UTC NOAA

Cairns Army Air Field / Ozark, AL, United States (KOZR) 31-17N 085-43W
Dec 08, 2023 - 08:55 PM EST / 2023.12.09 0155 UTC
Wind: from the ENE (070 degrees) at 3 MPH (3 KT):0
Visibility: 10 mile(s):0
Sky conditions: mostly cloudy
Temperature: 57.0 F (13.9 C)
Dew Point: 52.0 F (11.1 C)
Relative Humidity: 83%
Pressure (altimeter): 30.11 in. Hg (1019 hPa)
ob: KOZR 090155Z AUTO 07003KT 10SM BKN065 14/11 A3011 RMK AO2 SLP199 T01390111
cycle: 2

Station Type Date Time Source
KOZR TAF 2023/12/08 18:39 UTC NOAA

TAF KOZR 081800Z 0818/0924 10006KT 9999 SCT020 BKN035 BKN080 BKN220 QNH3006INS
BECMG 0820/0821 15008KT 9999 FEW015 BKN025 BKN150 QNH3003INS
TEMPO 0820/0823 8000 -SHRA
BECMG 0900/0901 12004KT 9999 NSW BKN020 OVC030 QNH3006INS
TEMPO 0903/0905 8000 -SHRA SCT005 OVC012
BECMG 0905/0906 12004KT 9999 NSW BKN005 OVC012 QNH3006INS
BECMG 0911/0912 13004KT 9999 VCSH BKN005 OVC012 QNH3003INS
TEMPO 0913/0918 VRB10G15KT 4800 TSRA SCT005
BECMG 0918/0919 13010KT 8000 -SHRA SCT007 QNH3002INS
BECMG 0922/0923 16008KT 8000 -SHRA BKN007 QNH3003INS TX15/0820Z TN12/0908Z

Example: see airport list